Time;durP1;ratioP1;P1;durP2;ratioP2;P2;SDS_P1;SDS_P2;PMS_P1;PMS_P2;Temp;Humidity;BMP_temperature;BMP_pressure;BME280_temperature;BME280_humidity;BME280_pressure;Samples;Min_cycle;Max_cycle;Signal;HPM_P1;HPM_P2
2023/04/06 00:02:27;;;;;;;11.83;8.70;;;5.40;74.30;;;;;;10399764;28;20195;-79
2023/04/06 00:07:29;;;;;;;10.50;9.60;;;5.40;73.90;;;;;;10414265;28;20208;-78
2023/04/06 00:12:33;;;;;;;9.70;8.77;;;5.30;74.40;;;;;;10416149;28;20233;-78
2023/04/06 00:17:35;;;;;;;34.93;24.10;;;5.20;74.70;;;;;;10399116;28;20663;-79
2023/04/06 00:22:37;;;;;;;17.00;14.00;;;5.20;75.30;;;;;;10413855;28;20196;-79
2023/04/06 00:27:41;;;;;;;24.83;17.23;;;5.20;75.70;;;;;;10416167;28;20568;-79
2023/04/06 00:32:43;;;;;;;10.97;9.90;;;5.20;76.10;;;;;;10396012;28;20230;-79
2023/04/06 00:37:47;;;;;;;10.60;9.50;;;5.20;75.60;;;;;;10414105;28;20205;-79
2023/04/06 00:42:51;;;;;;;10.60;9.70;;;5.20;73.80;;;;;;10396718;28;20241;-79
2023/04/06 00:47:54;;;;;;;9.10;8.30;;;5.20;73.90;;;;;;10396402;28;20570;-78
2023/04/06 00:52:56;;;;;;;10.67;9.67;;;5.30;73.20;;;;;;10413060;28;20219;-79
2023/04/06 00:58:05;;;;;;;10.40;9.40;;;5.10;73.50;;;;;;10411134;28;20305;-79
2023/04/06 01:03:15;;;;;;;12.10;11.10;;;5.10;74.30;;;;;;10407694;28;20234;-79
2023/04/06 01:08:19;;;;;;;10.50;9.33;;;5.00;75.70;;;;;;10413689;28;20210;-79
2023/04/06 01:13:23;;;;;;;11.10;10.03;;;5.00;74.40;;;;;;10416433;28;20227;-79
2023/04/06 01:18:39;;;;;;;11.80;10.80;;;4.90;75.40;;;;;;10414156;28;20274;-78
2023/04/06 01:23:56;;;;;;;11.70;10.70;;;4.80;76.60;;;;;;10397557;28;20216;-78
2023/04/06 01:29:05;;;;;;;12.50;11.30;;;4.80;76.70;;;;;;10414230;28;20193;-79
2023/04/06 01:34:08;;;;;;;18.83;17.10;;;4.80;77.70;;;;;;10413214;28;20232;-78
2023/04/06 01:39:12;;;;;;;11.80;10.60;;;4.70;76.60;;;;;;10412498;28;20208;-79
2023/04/06 01:44:18;;;;;;;11.37;10.40;;;4.70;77.10;;;;;;10413576;28;20311;-79
2023/04/06 01:49:22;;;;;;;11.07;9.97;;;4.60;77.30;;;;;;10416689;28;20260;-79
2023/04/06 01:54:31;;;;;;;11.20;10.10;;;4.60;77.30;;;;;;10404201;28;20224;-79
2023/04/06 01:59:44;;;;;;;13.00;10.07;;;4.60;77.40;;;;;;10404024;28;20202;-79
2023/04/06 02:04:55;;;;;;;11.97;10.87;;;4.60;76.60;;;;;;10405253;28;20229;-78
2023/04/06 02:09:59;;;;;;;10.80;9.90;;;4.50;77.30;;;;;;10420636;28;20250;-79
2023/04/06 02:15:13;;;;;;;12.90;11.60;;;4.50;77.80;;;;;;10421643;28;20703;-79
2023/04/06 02:20:15;;;;;;;13.47;10.67;;;4.50;78.50;;;;;;10421877;28;20203;-80
2023/04/06 02:25:19;;;;;;;11.67;10.57;;;4.50;77.30;;;;;;10423507;28;20228;-80
2023/04/06 02:30:21;;;;;;;11.70;10.63;;;4.40;77.40;;;;;;10409483;28;20209;-80
2023/04/06 02:35:26;;;;;;;11.40;10.40;;;4.30;77.50;;;;;;10425026;28;20215;-80
2023/04/06 02:40:32;;;;;;;15.60;11.17;;;4.20;77.10;;;;;;10422787;28;20520;-80
2023/04/06 02:45:41;;;;;;;11.20;10.30;;;4.10;77.70;;;;;;10426278;28;20212;-80
2023/04/06 02:50:45;;;;;;;13.43;11.00;;;4.10;77.60;;;;;;10424800;28;20682;-80
2023/04/06 02:55:49;;;;;;;11.23;10.23;;;4.00;79.00;;;;;;10426877;28;20314;-78
2023/04/06 03:00:51;;;;;;;12.00;11.00;;;4.00;78.30;;;;;;10425702;28;20655;-80
2023/04/06 03:05:54;;;;;;;12.17;11.17;;;4.00;78.50;;;;;;10467913;22;20231;-78
2023/04/06 03:11:03;;;;;;;12.20;11.20;;;4.10;78.40;;;;;;10456782;28;20220;-80
2023/04/06 03:16:12;;;;;;;12.10;10.87;;;4.10;79.00;;;;;;10457023;28;20221;-80
2023/04/06 03:21:16;;;;;;;13.17;11.90;;;4.00;78.30;;;;;;10456765;28;20222;-81
2023/04/06 03:26:25;;;;;;;14.00;12.70;;;4.00;79.20;;;;;;10458618;28;20305;-80
2023/04/06 03:31:28;;;;;;;13.20;11.90;;;4.00;79.00;;;;;;10455839;28;20781;-79
2023/04/06 03:36:36;;;;;;;14.53;13.13;;;3.90;80.10;;;;;;10456339;28;20212;-80
2023/04/06 03:41:41;;;;;;;12.63;11.47;;;3.90;80.10;;;;;;10455846;28;20190;-79
2023/04/06 03:47:12;;;;;;;13.00;11.77;;;4.00;78.60;;;;;;10450683;28;20230;-81
2023/04/06 03:52:14;;;;;;;14.63;13.33;;;3.90;78.70;;;;;;10461404;28;20207;-81
2023/04/06 03:57:18;;;;;;;16.73;12.30;;;3.80;79.20;;;;;;10462080;28;20224;-81
2023/04/06 04:02:20;;;;;;;16.57;14.90;;;3.70;80.00;;;;;;10461382;28;20194;-83
2023/04/06 04:07:22;;;;;;;14.90;13.50;;;3.80;79.40;;;;;;10458527;28;20305;-81
2023/04/06 04:12:27;;;;;;;14.20;10.70;;;3.80;80.50;;;;;;10461023;28;20263;-81
2023/04/06 04:17:29;;;;;;;13.30;12.10;;;3.80;79.50;;;;;;10444014;28;20229;-81
2023/04/06 04:22:32;;;;;;;21.00;18.27;;;3.80;78.90;;;;;;10477239;28;20717;-81
2023/04/06 04:27:37;;;;;;;13.67;12.37;;;3.80;80.30;;;;;;10471225;28;20214;-81
2023/04/06 04:32:39;;;;;;;12.23;11.13;;;3.70;80.00;;;;;;10443155;28;20283;-82
2023/04/06 04:37:44;;;;;;;14.17;12.13;;;3.80;79.60;;;;;;10465131;28;20709;-80
2023/04/06 04:42:53;;;;;;;13.33;12.03;;;3.80;79.80;;;;;;10459210;28;20285;-81
2023/04/06 04:48:09;;;;;;;13.83;12.53;;;3.70;80.80;;;;;;10458110;28;20198;-80
2023/04/06 04:53:24;;;;;;;13.10;11.90;;;3.70;81.30;;;;;;10453759;28;20223;-79
2023/04/06 04:58:31;;;;;;;11.97;10.73;;;3.70;80.70;;;;;;10453749;28;20201;-79
2023/04/06 05:03:35;;;;;;;13.63;12.13;;;3.70;81.30;;;;;;10457083;28;20313;-79
2023/04/06 05:08:42;;;;;;;13.43;12.17;;;3.80;80.00;;;;;;10457608;28;20191;-81
2023/04/06 05:13:47;;;;;;;13.43;12.07;;;3.80;80.80;;;;;;10457290;28;20222;-81
2023/04/06 05:18:56;;;;;;;12.90;11.80;;;3.80;81.80;;;;;;10462212;28;20198;-81
2023/04/06 05:24:02;;;;;;;13.43;12.10;;;3.80;81.30;;;;;;10481214;28;20207;-81
2023/04/06 05:29:08;;;;;;;12.60;11.50;;;3.90;80.70;;;;;;10491170;28;20260;-80
2023/04/06 05:34:12;;;;;;;12.37;11.37;;;3.90;81.20;;;;;;10453629;28;20226;-81
2023/04/06 05:39:15;;;;;;;12.67;11.47;;;4.00;81.30;;;;;;10462450;28;20223;-80
2023/04/06 05:44:25;;;;;;;13.47;12.10;;;4.00;81.50;;;;;;10453955;28;20272;-81
2023/04/06 05:49:37;;;;;;;13.43;12.20;;;4.00;81.40;;;;;;10454185;28;20199;-81
2023/04/06 05:54:44;;;;;;;14.07;12.77;;;4.10;82.90;;;;;;10471281;28;20217;-80
2023/04/06 05:59:47;;;;;;;14.00;12.60;;;4.20;82.50;;;;;;10482471;28;20229;-80
2023/04/06 06:04:51;;;;;;;14.60;12.43;;;4.30;81.60;;;;;;10463418;28;20261;-80
2023/04/06 06:09:57;;;;;;;13.83;12.47;;;4.30;80.90;;;;;;10462988;28;20634;-81
2023/04/06 06:15:07;;;;;;;20.83;13.60;;;4.40;81.70;;;;;;10448573;28;20630;-80
2023/04/06 06:20:14;;;;;;;14.77;13.03;;;4.40;81.00;;;;;;10447779;28;20200;-81
2023/04/06 06:25:18;;;;;;;14.83;13.03;;;4.50;80.90;;;;;;10465877;28;20217;-81
2023/04/06 06:30:24;;;;;;;17.47;13.07;;;4.60;81.20;;;;;;10449229;28;20490;-81
2023/04/06 06:35:27;;;;;;;15.33;13.87;;;4.80;81.00;;;;;;10470365;28;20308;-79
2023/04/06 06:40:29;;;;;;;17.77;14.40;;;4.90;81.00;;;;;;10442772;28;20305;-80
2023/04/06 06:45:34;;;;;;;17.50;14.60;;;5.00;82.20;;;;;;10459587;28;20224;-79
2023/04/06 06:50:36;;;;;;;17.63;15.57;;;5.20;82.60;;;;;;10459453;28;20214;-79
2023/04/06 06:55:38;;;;;;;15.90;14.30;;;5.30;82.30;;;;;;10483248;28;20221;-81
2023/04/06 07:00:42;;;;;;;17.73;14.23;;;5.50;82.00;;;;;;10453406;28;20265;-81
2023/04/06 07:05:49;;;;;;;16.93;15.17;;;5.60;81.70;;;;;;10457574;28;20224;-81
2023/04/06 07:10:53;;;;;;;18.10;16.03;;;5.80;81.80;;;;;;10459713;28;20202;-80
2023/04/06 07:15:56;;;;;;;20.00;15.10;;;6.00;80.80;;;;;;10444947;28;20565;-81
2023/04/06 07:20:59;;;;;;;15.67;14.10;;;6.10;82.40;;;;;;10463086;28;20595;-80
2023/04/06 07:26:01;;;;;;;16.03;14.53;;;6.20;82.50;;;;;;10463087;28;20637;-80
2023/04/06 07:31:05;;;;;;;15.90;14.40;;;6.40;82.70;;;;;;10448453;28;20220;-80
2023/04/06 07:36:07;;;;;;;17.50;15.77;;;6.50;83.30;;;;;;10483172;28;20281;-81
2023/04/06 07:41:10;;;;;;;20.53;17.43;;;6.60;83.00;;;;;;10467484;28;20224;-81
2023/04/06 07:46:13;;;;;;;17.80;16.00;;;6.80;83.30;;;;;;10464521;28;20220;-81
2023/04/06 07:51:17;;;;;;;16.97;15.47;;;7.00;81.80;;;;;;10465752;28;20194;-81
2023/04/06 07:56:20;;;;;;;18.27;16.50;;;7.10;82.10;;;;;;10463966;28;20298;-80
2023/04/06 08:01:24;;;;;;;16.37;14.70;;;7.30;83.00;;;;;;10462076;28;20254;-81
2023/04/06 08:06:26;;;;;;;17.23;15.53;;;7.50;80.70;;;;;;10460799;28;20254;-81
2023/04/06 08:11:28;;;;;;;16.53;14.83;;;7.70;82.40;;;;;;10463244;28;20261;-81
2023/04/06 08:16:32;;;;;;;15.83;14.37;;;7.90;82.70;;;;;;10461748;28;20221;-81
2023/04/06 08:21:34;;;;;;;17.60;15.50;;;8.10;80.20;;;;;;10463559;28;20256;-81
2023/04/06 08:26:36;;;;;;;16.83;15.13;;;8.40;77.50;;;;;;10458633;28;20276;-79
2023/04/06 08:31:40;;;;;;;17.30;15.63;;;8.50;78.60;;;;;;10454890;28;20239;-79
2023/04/06 08:36:43;;;;;;;17.63;15.73;;;8.70;79.70;;;;;;10453784;28;20219;-80
2023/04/06 08:41:45;;;;;;;14.97;13.67;;;8.90;77.10;;;;;;10454769;28;20196;-80
2023/04/06 08:46:50;;;;;;;18.00;14.73;;;9.00;77.30;;;;;;10452761;28;20645;-80
2023/04/06 08:51:52;;;;;;;18.87;15.27;;;9.20;77.00;;;;;;10457095;28;20723;-82
2023/04/06 08:56:56;;;;;;;14.70;13.30;;;9.30;76.40;;;;;;10468204;28;20217;-81
2023/04/06 09:02:01;;;;;;;13.80;12.60;;;9.60;71.70;;;;;;10469285;28;20198;-79
2023/04/06 09:07:03;;;;;;;12.57;11.40;;;9.80;69.30;;;;;;10472750;28;20315;-81
2023/04/06 09:12:06;;;;;;;13.77;12.17;;;9.90;72.50;;;;;;10489154;28;20743;-81
2023/04/06 09:17:20;;;;;;;13.17;11.73;;;10.00;70.20;;;;;;10478066;28;20586;-81
2023/04/06 09:22:24;;;;;;;13.70;12.30;;;10.20;68.50;;;;;;10482899;28;20201;-82
2023/04/06 09:27:32;;;;;;;13.20;12.10;;;10.40;68.20;;;;;;10474075;28;20228;-80
2023/04/06 09:32:47;;;;;;;13.90;12.53;;;10.70;64.50;;;;;;10472948;28;20228;-78
2023/04/06 09:37:51;;;;;;;12.10;10.83;;;10.90;67.70;;;;;;10471852;28;20243;-82
2023/04/06 09:42:57;;;;;;;13.33;12.00;;;11.20;63.60;;;;;;10471779;28;20193;-82
2023/04/06 09:48:01;;;;;;;11.27;10.20;;;11.40;57.00;;;;;;10470772;28;20197;-80
2023/04/06 09:53:04;;;;;;;9.70;8.87;;;11.70;55.80;;;;;;10473210;28;20206;-81
2023/04/06 09:58:07;;;;;;;11.83;10.73;;;11.90;60.20;;;;;;10475632;28;20274;-80
2023/04/06 10:03:21;;;;;;;14.03;12.60;;;12.20;58.30;;;;;;10465940;28;20194;-81
2023/04/06 10:08:28;;;;;;;12.80;11.50;;;12.60;57.30;;;;;;10468634;28;20209;-81
2023/04/06 10:13:30;;;;;;;11.83;10.83;;;12.70;59.00;;;;;;10468759;28;20222;-81
2023/04/06 10:18:34;;;;;;;11.60;10.00;;;12.60;57.40;;;;;;10469521;28;20198;-81
2023/04/06 10:23:40;;;;;;;10.00;9.20;;;12.50;53.60;;;;;;10477609;28;20210;-82
2023/04/06 10:28:44;;;;;;;9.20;8.40;;;12.30;54.80;;;;;;10458226;28;20202;-81
2023/04/06 10:33:56;;;;;;;11.23;10.23;;;12.10;54.70;;;;;;10479003;28;20232;-82
2023/04/06 10:39:00;;;;;;;10.40;9.40;;;11.90;54.10;;;;;;10473623;28;20209;-82
2023/04/06 10:44:03;;;;;;;11.00;9.90;;;11.80;55.50;;;;;;10469127;28;20240;-80
2023/04/06 10:49:13;;;;;;;10.57;9.47;;;11.60;56.10;;;;;;10464750;28;20201;-80
2023/04/06 10:54:17;;;;;;;10.23;9.47;;;11.60;58.30;;;;;;10464862;28;20310;-80
2023/04/06 10:59:21;;;;;;;10.60;9.70;;;11.50;55.00;;;;;;10464708;28;20205;-80
2023/04/06 11:04:25;;;;;;;10.80;9.80;;;11.50;56.70;;;;;;10463134;28;20222;-81
2023/04/06 11:09:29;;;;;;;11.10;10.20;;;11.40;55.20;;;;;;10463518;28;20204;-80
2023/04/06 11:14:31;;;;;;;11.10;10.10;;;11.40;54.40;;;;;;10463130;28;20295;-80
2023/04/06 11:19:35;;;;;;;10.53;9.60;;;11.30;55.20;;;;;;10463147;28;20201;-81
2023/04/06 11:24:37;;;;;;;9.77;8.77;;;11.30;57.10;;;;;;10455627;28;20210;-78
2023/04/06 11:29:40;;;;;;;9.20;8.47;;;11.30;58.00;;;;;;10454269;28;20255;-80
2023/04/06 11:34:44;;;;;;;11.07;8.27;;;11.30;55.90;;;;;;10453951;28;20781;-78
2023/04/06 11:39:50;;;;;;;8.87;8.10;;;11.30;58.60;;;;;;10454188;28;20590;-81
2023/04/06 11:44:54;;;;;;;9.60;8.67;;;11.30;57.40;;;;;;10461097;28;20282;-79
2023/04/06 11:50:07;;;;;;;8.80;8.00;;;11.30;57.40;;;;;;10460192;28;20213;-80
2023/04/06 11:55:14;;;;;;;10.23;9.23;;;11.40;58.40;;;;;;10445514;28;20594;-81
2023/04/06 12:00:17;;;;;;;9.83;8.20;;;11.50;56.00;;;;;;10438976;28;20567;-80
2023/04/06 12:05:21;;;;;;;8.90;8.10;;;11.50;56.40;;;;;;10459798;28;20283;-81
2023/04/06 12:10:23;;;;;;;8.67;7.97;;;11.60;54.80;;;;;;10461519;28;20198;-80
2023/04/06 12:15:25;;;;;;;10.73;9.63;;;11.70;57.20;;;;;;10462065;28;20639;-82
2023/04/06 12:20:29;;;;;;;10.17;9.17;;;11.60;57.80;;;;;;10459828;28;20194;-79
2023/04/06 12:25:31;;;;;;;10.30;9.27;;;11.60;55.90;;;;;;10458052;28;20588;-80
2023/04/06 12:30:35;;;;;;;9.10;8.23;;;11.60;54.60;;;;;;10441404;28;20194;-79
2023/04/06 12:35:38;;;;;;;9.20;8.40;;;11.70;56.80;;;;;;10457380;28;20229;-80
2023/04/06 12:40:40;;;;;;;11.03;9.10;;;11.80;53.80;;;;;;10459669;28;20202;-81
2023/04/06 12:45:43;;;;;;;9.80;8.90;;;11.80;56.10;;;;;;10458821;28;20209;-81
2023/04/06 12:50:58;;;;;;;8.80;8.10;;;11.90;51.00;;;;;;10460169;28;20193;-81
2023/04/06 12:56:00;;;;;;;8.23;7.53;;;11.90;53.10;;;;;;10460582;28;20220;-79
2023/04/06 13:01:07;;;;;;;9.00;8.20;;;11.90;53.70;;;;;;10457532;28;20225;-79
2023/04/06 13:06:12;;;;;;;10.27;9.30;;;11.90;54.90;;;;;;10458699;28;20643;-81
2023/04/06 13:11:14;;;;;;;9.70;8.80;;;12.10;50.50;;;;;;10463805;28;20202;-81
2023/04/06 13:16:17;;;;;;;8.80;8.00;;;12.10;51.90;;;;;;10463755;28;20210;-81
2023/04/06 13:21:20;;;;;;;9.10;8.30;;;12.10;54.10;;;;;;10450519;28;20194;-80
2023/04/06 13:26:22;;;;;;;7.43;6.80;;;12.20;51.30;;;;;;10461846;28;20271;-80
2023/04/06 13:31:25;;;;;;;8.50;7.70;;;12.30;52.90;;;;;;10442482;28;20228;-81
2023/04/06 13:36:28;;;;;;;8.90;7.20;;;12.40;52.70;;;;;;10461617;28;20228;-81
2023/04/06 13:41:30;;;;;;;7.83;7.20;;;12.60;51.60;;;;;;10461396;28;20255;-81
2023/04/06 13:46:33;;;;;;;8.40;7.80;;;12.90;50.90;;;;;;10474333;28;20214;-82
2023/04/06 13:51:36;;;;;;;9.67;8.67;;;13.10;50.10;;;;;;10455291;28;20198;-82
2023/04/06 13:56:38;;;;;;;7.93;7.20;;;13.10;50.60;;;;;;10473301;28;20228;-79
2023/04/06 14:01:40;;;;;;;8.43;7.73;;;13.10;53.50;;;;;;10475798;28;20205;-81
2023/04/06 14:06:46;;;;;;;9.40;8.50;;;13.20;49.90;;;;;;10464742;28;20308;-79
2023/04/06 14:11:48;;;;;;;8.13;7.43;;;13.30;51.00;;;;;;10467329;28;20324;-81
2023/04/06 14:16:50;;;;;;;8.90;8.10;;;13.40;52.90;;;;;;10465614;28;20499;-81
2023/04/06 14:21:54;;;;;;;8.03;7.30;;;13.50;51.20;;;;;;10461610;28;20501;-80
2023/04/06 14:26:56;;;;;;;7.17;6.40;;;13.50;52.30;;;;;;10457814;28;20244;-80
2023/04/06 14:32:00;;;;;;;8.27;7.47;;;13.50;54.40;;;;;;10465634;28;20249;-81
2023/04/06 14:37:03;;;;;;;8.17;7.47;;;13.40;51.90;;;;;;10467827;28;20222;-81
2023/04/06 14:42:05;;;;;;;7.97;7.27;;;13.40;52.60;;;;;;10467883;28;20194;-80
2023/04/06 14:47:08;;;;;;;8.40;7.63;;;13.40;53.40;;;;;;10465681;28;20207;-81
2023/04/06 14:52:11;;;;;;;8.73;7.93;;;13.40;53.40;;;;;;10464876;28;20579;-80
2023/04/06 14:57:13;;;;;;;10.23;7.53;;;13.30;51.00;;;;;;10462612;28;20763;-81
2023/04/06 15:02:15;;;;;;;8.67;7.87;;;13.40;52.00;;;;;;10458674;28;20285;-79
2023/04/06 15:07:19;;;;;;;8.93;8.13;;;13.20;54.80;;;;;;10467658;28;20285;-81
2023/04/06 15:12:21;;;;;;;9.90;8.00;;;13.20;53.20;;;;;;10464362;28;20205;-81
2023/04/06 15:17:25;;;;;;;9.40;7.17;;;13.10;53.30;;;;;;10466021;28;20213;-81
2023/04/06 15:22:29;;;;;;;7.60;6.90;;;13.00;54.30;;;;;;10476391;28;20666;-80
2023/04/06 15:27:31;;;;;;;7.30;6.70;;;13.10;48.80;;;;;;10454841;28;20221;-81
2023/04/06 15:32:33;;;;;;;9.10;8.17;;;13.10;55.10;;;;;;10459901;28;20228;-79
2023/04/06 15:37:37;;;;;;;7.90;7.10;;;13.00;55.40;;;;;;10463488;28;20303;-80
2023/04/06 15:42:42;;;;;;;7.70;7.00;;;13.00;57.30;;;;;;10463783;28;20204;-81
2023/04/06 15:47:45;;;;;;;8.30;7.50;;;13.10;56.60;;;;;;10463291;28;20237;-82
2023/04/06 15:52:48;;;;;;;9.37;8.40;;;13.10;54.70;;;;;;10444401;28;20272;-82
2023/04/06 15:57:50;;;;;;;8.30;7.60;;;13.20;52.10;;;;;;10463907;28;20693;-82
2023/04/06 16:02:52;;;;;;;8.77;7.97;;;13.20;53.90;;;;;;10464421;28;20213;-82
2023/04/06 16:07:56;;;;;;;8.73;8.03;;;13.20;54.00;;;;;;10461719;28;20721;-82
2023/04/06 16:12:58;;;;;;;8.73;7.97;;;13.20;56.70;;;;;;10447906;28;20227;-81
2023/04/06 16:18:00;;;;;;;8.90;8.00;;;13.10;55.40;;;;;;10463517;28;20201;-82
2023/04/06 16:23:04;;;;;;;8.27;7.57;;;13.00;53.50;;;;;;10440422;28;20209;-81
2023/04/06 16:28:06;;;;;;;14.13;7.80;;;13.00;54.80;;;;;;10441967;28;20251;-83
2023/04/06 16:33:09;;;;;;;9.80;8.80;;;13.00;58.50;;;;;;10463325;28;20253;-81
2023/04/06 16:38:12;;;;;;;9.23;8.33;;;12.90;57.60;;;;;;10471345;28;20289;-82
2023/04/06 16:43:14;;;;;;;9.63;6.50;;;12.80;55.00;;;;;;10471551;28;20186;-82
2023/04/06 16:48:16;;;;;;;9.20;8.30;;;12.80;57.00;;;;;;10462670;28;20206;-81
2023/04/06 16:53:20;;;;;;;10.17;8.60;;;12.70;61.10;;;;;;10477981;28;20240;-81
2023/04/06 16:58:22;;;;;;;9.40;8.57;;;12.60;57.70;;;;;;10435658;28;20198;-81
2023/04/06 17:03:24;;;;;;;11.17;10.20;;;12.60;59.20;;;;;;10477820;28;20247;-81
2023/04/06 17:08:27;;;;;;;12.90;11.43;;;12.50;57.60;;;;;;10470285;28;20714;-81
2023/04/06 17:13:29;;;;;;;10.83;9.80;;;12.40;58.80;;;;;;10468581;28;20240;-81
2023/04/06 17:18:31;;;;;;;10.17;9.13;;;12.30;60.60;;;;;;10461230;28;20234;-81
2023/04/06 17:23:35;;;;;;;13.30;9.90;;;12.30;60.30;;;;;;10468558;28;20252;-82
2023/04/06 17:28:37;;;;;;;9.30;8.40;;;12.20;60.50;;;;;;10451609;28;20194;-82
2023/04/06 17:33:41;;;;;;;9.70;8.73;;;12.20;58.40;;;;;;10445636;28;20218;-82
2023/04/06 17:38:45;;;;;;;7.90;7.20;;;12.10;59.80;;;;;;10471841;28;20190;-82
2023/04/06 17:43:47;;;;;;;6.93;6.20;;;12.10;58.30;;;;;;10470185;28;20206;-81
2023/04/06 17:48:50;;;;;;;7.90;7.10;;;12.00;56.20;;;;;;10466066;28;20647;-82
2023/04/06 17:53:54;;;;;;;12.47;7.10;;;12.00;59.10;;;;;;10440129;28;20609;-81
2023/04/06 17:58:56;;;;;;;8.13;7.33;;;12.00;58.50;;;;;;10468186;28;20194;-82
2023/04/06 18:03:58;;;;;;;8.60;7.20;;;11.90;57.70;;;;;;10469952;28;20222;-81
2023/04/06 18:09:03;;;;;;;11.87;10.57;;;11.90;57.40;;;;;;10470855;28;20205;-82
2023/04/06 18:14:07;;;;;;;7.43;6.83;;;11.80;59.40;;;;;;10465839;28;20218;-82
2023/04/06 18:19:09;;;;;;;8.43;7.30;;;11.80;58.30;;;;;;10469044;28;20359;-81
2023/04/06 18:24:13;;;;;;;9.17;7.23;;;11.80;61.10;;;;;;10471284;28;20214;-81
2023/04/06 18:29:15;;;;;;;8.20;7.40;;;11.80;59.20;;;;;;10481322;28;20218;-82
2023/04/06 18:34:17;;;;;;;8.80;7.97;;;11.70;65.20;;;;;;10471254;28;20213;-81
2023/04/06 18:39:20;;;;;;;9.17;8.10;;;11.70;63.20;;;;;;10469892;28;20228;-82
2023/04/06 18:44:22;;;;;;;8.33;6.83;;;11.70;62.20;;;;;;10452050;28;20249;-82
2023/04/06 18:49:24;;;;;;;7.47;6.70;;;11.60;62.10;;;;;;10464502;28;20261;-82
2023/04/06 18:54:28;;;;;;;6.00;5.50;;;11.60;58.90;;;;;;10490687;28;20300;-82
2023/04/06 18:59:30;;;;;;;7.13;5.83;;;11.60;63.30;;;;;;10470080;28;20201;-82
2023/04/06 19:04:32;;;;;;;9.00;7.47;;;11.60;66.70;;;;;;10493094;28;20221;-82
2023/04/06 19:09:37;;;;;;;8.57;7.07;;;11.50;65.10;;;;;;10473378;28;20550;-82
2023/04/06 19:14:39;;;;;;;7.57;6.90;;;11.50;63.20;;;;;;10484936;28;20206;-81
2023/04/06 19:19:41;;;;;;;8.70;7.80;;;11.50;68.30;;;;;;10479219;28;20197;-82
2023/04/06 19:24:48;;;;;;;8.83;7.93;;;11.50;65.30;;;;;;10461880;28;20788;-81
2023/04/06 19:29:50;;;;;;;8.57;7.67;;;11.40;65.40;;;;;;10456088;28;20207;-82
2023/04/06 19:34:53;;;;;;;7.50;6.80;;;11.40;68.60;;;;;;10492329;28;20309;-82
2023/04/06 19:39:57;;;;;;;6.53;5.93;;;11.40;68.10;;;;;;10465806;28;20291;-82
2023/04/06 19:44:59;;;;;;;13.93;12.57;;;11.40;66.70;;;;;;10446343;28;20507;-82
2023/04/06 19:50:01;;;;;;;6.07;5.47;;;11.40;66.30;;;;;;10456492;28;20399;-82
2023/04/06 19:55:06;;;;;;;8.07;7.40;;;11.40;60.70;;;;;;10462441;28;20233;-82
2023/04/06 20:00:09;;;;;;;4.80;4.10;;;11.40;60.80;;;;;;10462480;28;20277;-82
2023/04/06 20:05:11;;;;;;;4.43;4.03;;;11.40;61.50;;;;;;10474672;28;20709;-82
2023/04/06 20:10:15;;;;;;;5.27;4.83;;;11.40;63.40;;;;;;10455952;28;20207;-82
2023/04/06 20:15:17;;;;;;;5.33;4.93;;;11.40;66.80;;;;;;10455980;28;20242;-82
2023/04/06 20:20:20;;;;;;;6.63;5.67;;;11.40;62.70;;;;;;10455249;28;20198;-82
2023/04/06 20:25:23;;;;;;;4.87;4.43;;;11.40;65.10;;;;;;10454461;28;20706;-82
2023/04/06 20:30:25;;;;;;;3.93;3.60;;;11.40;63.50;;;;;;10454057;28;20200;-81
2023/04/06 20:35:28;;;;;;;3.80;3.60;;;11.40;64.70;;;;;;10454967;28;20225;-81
2023/04/06 20:40:31;;;;;;;4.80;4.40;;;11.30;66.60;;;;;;10457150;28;20729;-82
2023/04/06 20:45:37;;;;;;;5.70;4.93;;;11.30;66.00;;;;;;10457510;28;20272;-80
2023/04/06 20:50:39;;;;;;;5.30;4.90;;;11.30;67.80;;;;;;10441761;28;20317;-81
2023/04/06 20:55:42;;;;;;;6.63;5.97;;;11.30;68.30;;;;;;10466140;28;20244;-81
2023/04/06 21:00:44;;;;;;;7.03;5.50;;;11.30;69.30;;;;;;10468616;28;20316;-81
2023/04/06 21:05:51;;;;;;;6.33;5.87;;;11.20;70.00;;;;;;10468878;28;20300;-81
2023/04/06 21:10:54;;;;;;;6.30;5.67;;;11.20;69.60;;;;;;10470231;28;20205;-82
2023/04/06 21:15:56;;;;;;;6.40;5.80;;;11.10;70.10;;;;;;10469875;28;20283;-82
2023/04/06 21:20:59;;;;;;;7.27;6.60;;;11.10;72.10;;;;;;10471665;28;20198;-81
2023/04/06 21:26:02;;;;;;;7.50;6.80;;;11.00;74.80;;;;;;10463942;28;20593;-82
2023/04/06 21:31:07;;;;;;;7.30;6.70;;;11.00;76.90;;;;;;10471686;28;20202;-82
2023/04/06 21:36:09;;;;;;;8.00;7.30;;;10.80;81.20;;;;;;10451072;28;20249;-82
2023/04/06 21:41:13;;;;;;;9.50;8.60;;;10.70;81.70;;;;;;10477835;28;20242;-81
2023/04/06 21:46:15;;;;;;;8.90;8.20;;;10.50;86.00;;;;;;10468648;28;20217;-81
2023/04/06 21:51:17;;;;;;;10.53;9.50;;;10.20;88.40;;;;;;10452456;28;20263;-81
2023/04/06 21:56:21;;;;;;;12.20;11.10;;;10.10;90.80;;;;;;10470308;28;20220;-81
2023/04/06 22:01:24;;;;;;;10.20;9.40;;;9.80;92.00;;;;;;10455738;28;20735;-82
2023/04/06 22:06:26;;;;;;;11.80;10.77;;;9.60;92.90;;;;;;10475017;28;20265;-79
2023/04/06 22:11:29;;;;;;;12.00;11.10;;;9.40;94.40;;;;;;10482877;28;20647;-81
2023/04/06 22:16:31;;;;;;;12.57;11.53;;;9.30;95.10;;;;;;10467386;28;20220;-80
2023/04/06 22:21:33;;;;;;;12.50;11.43;;;9.20;95.90;;;;;;10462113;28;20561;-82
2023/04/06 22:26:37;;;;;;;14.20;12.83;;;9.20;96.80;;;;;;10463501;28;20238;-80
2023/04/06 22:31:39;;;;;;;14.17;12.87;;;9.10;97.40;;;;;;10463780;28;20211;-82
2023/04/06 22:36:41;;;;;;;13.10;11.97;;;9.10;97.90;;;;;;10459612;28;20228;-81
2023/04/06 22:41:44;;;;;;;14.93;13.53;;;9.00;98.30;;;;;;10459984;28;20288;-80
2023/04/06 22:46:48;;;;;;;15.57;14.27;;;8.90;99.30;;;;;;10457973;28;20555;-81
2023/04/06 22:51:50;;;;;;;15.17;13.93;;;8.90;99.90;;;;;;10441975;28;20201;-81
2023/04/06 22:56:53;;;;;;;15.07;13.73;;;8.90;99.90;;;;;;10458539;28;20306;-80
2023/04/06 23:01:57;;;;;;;15.00;13.80;;;9.00;99.90;;;;;;10443675;28;20558;-81
2023/04/06 23:06:59;;;;;;;16.37;14.83;;;9.00;99.90;;;;;;10442601;28;20288;-80
2023/04/06 23:12:02;;;;;;;15.47;14.20;;;9.00;99.90;;;;;;10464487;28;20255;-81
2023/04/06 23:17:04;;;;;;;15.70;14.40;;;9.00;99.90;;;;;;10476595;28;20584;-81
2023/04/06 23:22:06;;;;;;;15.47;14.10;;;9.00;99.90;;;;;;10468386;28;20548;-81
2023/04/06 23:27:09;;;;;;;15.10;13.83;;;9.00;99.90;;;;;;10485843;28;20215;-81
2023/04/06 23:32:11;;;;;;;16.60;15.10;;;9.00;99.90;;;;;;10442483;28;20198;-81
2023/04/06 23:37:13;;;;;;;15.20;13.70;;;9.00;99.90;;;;;;10463743;28;20714;-81
2023/04/06 23:42:17;;;;;;;16.07;14.77;;;8.90;99.90;;;;;;10462193;28;20190;-82
2023/04/06 23:47:19;;;;;;;15.73;14.03;;;8.90;99.90;;;;;;10442607;28;20214;-82
2023/04/06 23:52:21;;;;;;;14.80;13.57;;;8.90;99.90;;;;;;10459314;28;20210;-81
2023/04/06 23:57:24;;;;;;;15.17;13.97;;;8.90;99.90;;;;;;10461317;28;20358;-82
